createdAt,value
2022-09-11T00:00:42.006Z,17.44
2022-09-11T00:03:12.512Z,17.38
2022-09-11T00:05:44.000Z,17.46
2022-09-11T00:08:20.466Z,17.33
2022-09-11T00:10:52.184Z,17.35
2022-09-11T00:13:25.704Z,17.40
2022-09-11T00:15:55.859Z,17.37
2022-09-11T00:18:28.440Z,17.50
2022-09-11T00:21:00.811Z,17.50
2022-09-11T00:23:33.507Z,17.50
2022-09-11T00:26:06.292Z,17.54
2022-09-11T00:28:37.174Z,17.56
2022-09-11T00:31:10.238Z,17.64
2022-09-11T00:33:40.300Z,17.69
2022-09-11T00:36:15.875Z,17.73
2022-09-11T00:38:48.699Z,17.68
2022-09-11T00:41:22.477Z,17.68
2022-09-11T00:44:04.247Z,17.65
2022-09-11T00:46:41.869Z,17.72
2022-09-11T00:49:24.883Z,17.76
2022-09-11T00:52:00.958Z,17.73
2022-09-11T00:54:38.678Z,17.72
2022-09-11T00:57:11.502Z,17.69
2022-09-11T00:59:45.842Z,17.65
2022-09-11T01:02:27.180Z,17.65
2022-09-11T01:04:59.248Z,17.63
2022-09-11T01:07:32.254Z,17.59
2022-09-11T01:10:05.368Z,17.55
2022-09-11T01:12:44.607Z,17.51
2022-09-11T01:15:24.461Z,17.49
2022-09-11T01:18:06.344Z,17.45
2022-09-11T01:20:53.455Z,17.44
2022-09-11T01:23:42.902Z,17.37
2022-09-11T01:26:41.360Z,17.36
2022-09-11T01:29:22.912Z,17.36
2022-09-11T01:32:02.739Z,17.33
2022-09-11T01:34:40.606Z,17.35
2022-09-11T01:37:17.774Z,17.30
2022-09-11T01:39:54.574Z,17.21
2022-09-11T01:42:27.880Z,17.14
2022-09-11T01:45:00.761Z,17.09
2022-09-11T01:47:33.109Z,17.04
2022-09-11T01:50:07.519Z,17.07
2022-09-11T01:52:45.106Z,17.12
2022-09-11T01:55:20.925Z,17.11
2022-09-11T01:57:55.537Z,17.08
2022-09-11T02:00:28.912Z,17.09
2022-09-11T02:03:03.940Z,17.02
2022-09-11T02:05:43.883Z,16.95
2022-09-11T02:08:24.459Z,16.82
2022-09-11T02:11:03.850Z,16.62
2022-09-11T02:13:42.218Z,16.53
2022-09-11T02:16:22.955Z,16.57
2022-09-11T02:19:03.541Z,16.60
2022-09-11T02:21:34.832Z,16.72
2022-09-11T02:24:05.723Z,16.79
2022-09-11T02:26:41.624Z,16.83
2022-09-11T02:29:11.845Z,16.88
2022-09-11T02:31:45.601Z,16.92
2022-09-11T02:34:18.043Z,16.92
2022-09-11T02:37:07.163Z,16.86
2022-09-11T02:40:02.600Z,16.77
2022-09-11T02:42:47.376Z,16.64
2022-09-11T02:45:35.717Z,16.56
2022-09-11T02:48:32.650Z,16.62
2022-09-11T02:51:11.517Z,16.60
2022-09-11T02:53:51.565Z,16.61
2022-09-11T02:56:34.804Z,16.66
2022-09-11T02:59:11.266Z,16.69
2022-09-11T03:01:55.318Z,16.74
2022-09-11T03:04:34.913Z,16.72
2022-09-11T03:07:06.990Z,16.72
2022-09-11T03:09:37.709Z,16.78
2022-09-11T03:12:14.279Z,16.87
2022-09-11T03:14:44.501Z,16.88
2022-09-11T03:17:14.627Z,16.86
2022-09-11T03:19:47.370Z,16.88
2022-09-11T03:22:17.521Z,16.89
2022-09-11T03:24:48.217Z,16.92
2022-09-11T03:27:18.586Z,16.96
2022-09-11T03:29:48.974Z,16.95
2022-09-11T03:32:19.307Z,16.95
2022-09-11T03:34:52.255Z,16.86
2022-09-11T03:37:22.342Z,16.91
2022-09-11T03:39:54.893Z,16.92
2022-09-11T03:42:25.291Z,16.95
2022-09-11T03:44:55.435Z,16.94
2022-09-11T03:47:25.589Z,16.93
2022-09-11T03:49:59.794Z,16.91
2022-09-11T03:52:30.394Z,16.90
2022-09-11T03:55:00.484Z,16.92
2022-09-11T03:57:30.730Z,16.93
2022-09-11T04:00:01.587Z,16.88
2022-09-11T04:02:37.543Z,16.86
2022-09-11T04:05:12.236Z,16.89
2022-09-11T04:07:43.602Z,16.84
2022-09-11T04:10:14.657Z,16.73
2022-09-11T04:12:44.830Z,16.78
2022-09-11T04:15:15.134Z,16.73
2022-09-11T04:17:45.196Z,16.75
2022-09-11T04:20:18.362Z,16.77
2022-09-11T04:22:49.433Z,16.78
2022-09-11T04:25:19.702Z,16.67
2022-09-11T04:27:49.833Z,16.60
2022-09-11T04:30:22.400Z,16.45
2022-09-11T04:32:53.288Z,16.54
2022-09-11T04:35:27.126Z,16.58
2022-09-11T04:38:00.164Z,16.59
2022-09-11T04:40:30.175Z,16.59
2022-09-11T04:43:01.145Z,16.67
2022-09-11T04:45:33.384Z,16.76
2022-09-11T04:48:06.258Z,16.83
2022-09-11T04:50:38.981Z,16.78
2022-09-11T04:53:24.558Z,16.82
2022-09-11T04:55:55.202Z,16.72
2022-09-11T04:58:25.756Z,16.70
2022-09-11T05:00:55.832Z,16.72
2022-09-11T05:03:26.346Z,16.73
2022-09-11T05:06:01.549Z,16.73
2022-09-11T05:08:32.942Z,16.79
2022-09-11T05:11:05.496Z,16.82
2022-09-11T05:13:36.786Z,16.84
2022-09-11T05:16:09.983Z,16.88
2022-09-11T05:18:40.693Z,16.91
2022-09-11T05:21:18.313Z,16.91
2022-09-11T05:23:52.213Z,16.91
2022-09-11T05:26:24.759Z,17.01
2022-09-11T05:28:57.571Z,17.04
2022-09-11T05:31:29.044Z,17.10
2022-09-11T05:34:00.612Z,17.08
2022-09-11T05:36:35.439Z,17.09
2022-09-11T05:39:07.214Z,17.07
2022-09-11T05:41:37.868Z,17.06
2022-09-11T05:44:08.176Z,17.06
2022-09-11T05:46:40.658Z,17.07
2022-09-11T05:49:10.708Z,17.16
2022-09-11T05:51:45.924Z,17.12
2022-09-11T05:54:16.084Z,17.15
2022-09-11T05:56:48.190Z,17.14
2022-09-11T05:59:27.200Z,17.19
2022-09-11T06:01:57.449Z,17.20
2022-09-11T06:04:40.177Z,17.18
2022-09-11T06:07:14.327Z,17.19
2022-09-11T06:09:46.185Z,17.31
2022-09-11T06:12:16.196Z,17.23
2022-09-11T06:14:46.742Z,17.23
2022-09-11T06:17:17.365Z,17.32
2022-09-11T06:19:48.069Z,17.32
2022-09-11T06:22:22.469Z,17.32
2022-09-11T06:24:54.366Z,17.40
2022-09-11T06:27:25.223Z,17.39
2022-09-11T06:29:56.531Z,17.44
2022-09-11T06:32:26.512Z,17.45
2022-09-11T06:34:59.082Z,17.43
2022-09-11T06:37:31.972Z,17.46
2022-09-11T06:40:03.254Z,17.42
2022-09-11T06:42:34.050Z,17.45
2022-09-11T06:45:04.775Z,17.48
2022-09-11T06:47:35.032Z,17.52
2022-09-11T06:50:06.974Z,17.47
2022-09-11T06:52:50.247Z,17.36
2022-09-11T06:55:30.409Z,17.43
2022-09-11T06:58:07.560Z,17.43
2022-09-11T07:00:40.687Z,17.60
2022-09-11T07:03:16.887Z,17.65
2022-09-11T07:05:49.869Z,17.78
2022-09-11T07:08:24.968Z,17.74
2022-09-11T07:10:55.627Z,17.78
2022-09-11T07:13:26.474Z,17.84
2022-09-11T07:16:03.405Z,17.86
2022-09-11T07:18:37.869Z,17.98
2022-09-11T07:21:14.208Z,18.04
2022-09-11T07:23:51.251Z,18.04
2022-09-11T07:26:23.551Z,17.94
2022-09-11T07:28:57.727Z,17.96
2022-09-11T07:31:29.258Z,17.94
2022-09-11T07:34:00.098Z,17.81
2022-09-11T07:36:31.038Z,17.67
2022-09-11T07:39:05.677Z,17.72
2022-09-11T07:41:52.946Z,17.90
2022-09-11T07:44:28.504Z,18.07
2022-09-11T07:47:00.944Z,18.11
2022-09-11T07:49:33.452Z,18.19
2022-09-11T07:52:03.712Z,18.28
2022-09-11T07:54:51.310Z,18.21
2022-09-11T07:57:24.310Z,18.19
2022-09-11T07:59:54.957Z,18.27
2022-09-11T08:02:25.558Z,18.21
2022-09-11T08:04:56.458Z,18.20
2022-09-11T08:07:26.978Z,18.38
2022-09-11T08:10:23.263Z,18.63
2022-09-11T08:12:50.936Z,18.73
2022-09-11T08:15:21.840Z,18.62
2022-09-11T08:17:52.876Z,18.66
2022-09-11T08:20:22.946Z,18.70
2022-09-11T08:22:53.151Z,18.73
2022-09-11T08:25:25.854Z,18.68
2022-09-11T08:27:55.942Z,18.66
2022-09-11T08:30:27.427Z,18.83
2022-09-11T08:32:57.537Z,19.07
2022-09-11T08:35:28.226Z,19.53
2022-09-11T08:37:58.382Z,20.13
2022-09-11T08:40:32.308Z,19.93
2022-09-11T08:43:06.576Z,19.85
2022-09-11T08:45:38.882Z,19.88
2022-09-11T08:48:11.374Z,19.72
2022-09-11T08:50:45.850Z,19.49
2022-09-11T08:53:21.395Z,19.28
2022-09-11T08:56:03.207Z,19.27
2022-09-11T08:58:44.653Z,19.43
2022-09-11T09:01:29.212Z,19.56
2022-09-11T09:04:27.625Z,20.08
2022-09-11T09:07:12.062Z,20.31
2022-09-11T09:09:54.046Z,20.78
2022-09-11T09:12:35.602Z,20.72
2022-09-11T09:15:21.366Z,20.31
2022-09-11T09:18:00.720Z,20.07
2022-09-11T09:20:37.451Z,20.08
2022-09-11T09:23:19.195Z,20.31
2022-09-11T09:25:52.849Z,20.39
2022-09-11T09:28:29.521Z,20.66
2022-09-11T09:31:06.090Z,20.49
2022-09-11T09:33:38.705Z,20.38
2022-09-11T09:36:17.846Z,20.24
2022-09-11T09:38:49.349Z,20.10
2022-09-11T09:42:03.820Z,20.07
2022-09-11T09:44:56.543Z,20.47
2022-09-11T09:47:26.906Z,20.47
2022-09-11T09:49:59.237Z,20.33
2022-09-11T09:52:36.159Z,20.30
2022-09-11T09:55:17.540Z,20.93
2022-09-11T09:57:48.207Z,21.32
2022-09-11T10:00:22.621Z,20.60
2022-09-11T10:02:56.655Z,20.33
2022-09-11T10:05:31.172Z,20.15
2022-09-11T10:08:03.835Z,19.89
2022-09-11T10:10:38.192Z,19.83
2022-09-11T10:13:25.165Z,19.99
2022-09-11T10:16:02.048Z,19.98
2022-09-11T10:18:42.411Z,19.97
2022-09-11T10:21:37.512Z,19.91
2022-09-11T10:24:26.347Z,19.68
2022-09-11T10:26:59.291Z,19.41
2022-09-11T10:29:32.368Z,19.29
2022-09-11T10:32:06.577Z,19.16
2022-09-11T10:34:41.158Z,19.09
2022-09-11T10:37:27.435Z,19.03
2022-09-11T10:40:08.322Z,18.76
2022-09-11T10:42:40.235Z,18.66
2022-09-11T10:45:18.121Z,18.58
2022-09-11T10:47:51.012Z,18.39
2022-09-11T10:50:29.770Z,18.40
2022-09-11T10:53:19.892Z,18.32
2022-09-11T10:56:00.279Z,18.19
2022-09-11T10:58:36.929Z,18.08
2022-09-11T11:01:07.141Z,18.23
2022-09-11T11:03:39.996Z,18.26
2022-09-11T11:06:26.449Z,18.14
2022-09-11T11:09:17.055Z,18.24
2022-09-11T11:12:05.487Z,18.27
2022-09-11T11:14:59.376Z,18.40
2022-09-11T11:17:43.275Z,18.42
2022-09-11T11:20:30.238Z,18.43
2022-09-11T11:23:22.355Z,18.46
2022-09-11T11:26:06.529Z,18.44
2022-09-11T11:28:58.726Z,18.50
2022-09-11T11:31:44.226Z,18.56
2022-09-11T11:34:36.899Z,18.77
2022-09-11T11:37:18.022Z,19.09
2022-09-11T11:39:57.327Z,19.11
2022-09-11T11:42:31.169Z,18.89
2022-09-11T11:45:07.492Z,18.62
2022-09-11T11:47:42.725Z,18.44
2022-09-11T11:50:31.123Z,18.62
2022-09-11T11:53:13.154Z,18.84
2022-09-11T11:55:58.020Z,18.71
2022-09-11T11:58:43.725Z,18.61
2022-09-11T12:01:25.780Z,18.49
2022-09-11T12:04:04.518Z,18.41
2022-09-11T12:06:35.436Z,18.36
2022-09-11T12:09:11.896Z,18.39
2022-09-11T12:11:42.299Z,18.31
2022-09-11T12:14:32.233Z,18.19
2022-09-11T12:17:21.914Z,18.29
2022-09-11T12:20:18.701Z,18.26
2022-09-11T12:22:50.617Z,18.26
2022-09-11T12:25:54.745Z,18.32
2022-09-11T12:28:27.580Z,18.45
2022-09-11T12:31:07.992Z,18.58
2022-09-11T12:33:58.156Z,18.76
2022-09-11T12:36:36.313Z,18.70
2022-09-11T12:39:27.732Z,18.59
2022-09-11T12:42:42.840Z,18.50
2022-09-11T12:45:35.211Z,18.43
2022-09-11T12:48:09.448Z,18.53
2022-09-11T12:50:40.868Z,18.60
2022-09-11T12:53:22.924Z,18.85
2022-09-11T12:55:59.520Z,18.92
2022-09-11T12:58:36.813Z,18.80
2022-09-11T13:01:20.686Z,18.71
2022-09-11T13:04:01.167Z,19.03
2022-09-11T13:06:43.363Z,19.21
2022-09-11T13:09:24.281Z,19.20
2022-09-11T13:11:57.058Z,19.22
2022-09-11T13:14:52.089Z,19.55
2022-09-11T13:17:31.459Z,19.74
2022-09-11T13:20:24.331Z,19.95
2022-09-11T13:22:58.387Z,20.08
2022-09-11T13:25:31.643Z,20.00
2022-09-11T13:28:04.419Z,19.81
2022-09-11T13:30:35.158Z,19.87
2022-09-11T13:33:11.419Z,19.73
2022-09-11T13:35:43.379Z,19.49
2022-09-11T13:38:21.470Z,19.37
2022-09-11T13:40:58.134Z,19.40
2022-09-11T13:43:32.536Z,19.50
2022-09-11T13:46:24.100Z,19.54
2022-09-11T13:49:01.613Z,19.52
2022-09-11T13:51:33.416Z,19.46
2022-09-11T13:54:11.756Z,19.50
2022-09-11T13:56:48.038Z,19.51
2022-09-11T13:59:41.726Z,19.46
2022-09-11T14:02:41.467Z,19.35
2022-09-11T14:05:20.901Z,19.20
2022-09-11T14:08:01.675Z,19.25
2022-09-11T14:10:34.088Z,19.32
2022-09-11T14:13:15.405Z,19.39
2022-09-11T14:15:50.789Z,19.47
2022-09-11T14:18:35.335Z,19.34
2022-09-11T14:21:15.982Z,19.22
2022-09-11T14:23:50.780Z,19.14
2022-09-11T14:26:22.960Z,19.07
2022-09-11T14:29:06.284Z,19.09
2022-09-11T14:31:40.092Z,19.08
2022-09-11T14:34:20.511Z,19.16
2022-09-11T14:36:59.449Z,19.17
2022-09-11T14:39:36.223Z,19.25
2022-09-11T14:42:10.080Z,19.29
2022-09-11T14:44:42.249Z,19.24
2022-09-11T14:47:19.205Z,19.35
2022-09-11T14:49:50.006Z,19.44
2022-09-11T14:52:24.822Z,19.47
2022-09-11T14:54:55.345Z,19.43
2022-09-11T14:57:33.981Z,19.42
2022-09-11T15:00:04.338Z,19.48
2022-09-11T15:02:34.510Z,19.43
2022-09-11T15:05:04.676Z,20.58
2022-09-11T15:07:37.385Z,23.04
2022-09-11T15:10:08.717Z,24.51
2022-09-11T15:12:38.790Z,25.36
2022-09-11T15:15:10.714Z,26.21
2022-09-11T15:17:40.892Z,26.90
2022-09-11T15:20:12.236Z,27.53
2022-09-11T15:22:44.938Z,27.80
2022-09-11T15:25:15.195Z,28.16
2022-09-11T15:27:45.315Z,28.42
2022-09-11T15:30:15.548Z,28.32
2022-09-11T15:32:45.341Z,27.56
2022-09-11T15:35:18.371Z,27.68
2022-09-11T15:37:51.068Z,28.04
2022-09-11T15:40:21.338Z,28.23
2022-09-11T15:42:52.174Z,28.19
2022-09-11T15:45:22.235Z,27.72
2022-09-11T15:47:52.071Z,27.53
2022-09-11T15:50:27.915Z,27.40
2022-09-11T15:53:02.012Z,26.72
2022-09-11T15:55:32.524Z,25.10
2022-09-11T15:58:03.287Z,25.35
2022-09-11T16:00:33.398Z,24.86
2022-09-11T16:03:03.497Z,25.08
2022-09-11T16:05:33.665Z,24.47
2022-09-11T16:08:06.324Z,24.42
2022-09-11T16:10:39.998Z,23.65
2022-09-11T16:13:10.553Z,23.08
2022-09-11T16:15:40.884Z,22.70
2022-09-11T16:18:12.076Z,22.14
2022-09-11T16:20:44.115Z,21.69
2022-09-11T16:23:16.874Z,21.37
2022-09-11T16:25:46.950Z,21.00
2022-09-11T16:28:17.056Z,20.79
2022-09-11T16:30:51.057Z,20.58
2022-09-11T16:33:23.066Z,20.42
2022-09-11T16:36:03.969Z,20.19
2022-09-11T16:38:39.514Z,20.07
2022-09-11T16:41:15.829Z,19.91
2022-09-11T16:43:48.730Z,19.75
2022-09-11T16:46:21.880Z,19.64
2022-09-11T16:48:54.928Z,19.54
2022-09-11T16:51:26.664Z,19.41
2022-09-11T16:53:59.658Z,19.29
2022-09-11T16:56:30.390Z,19.21
2022-09-11T16:59:00.336Z,19.19
2022-09-11T17:01:31.243Z,19.01
2022-09-11T17:04:01.479Z,18.93
2022-09-11T17:06:32.359Z,18.81
2022-09-11T17:09:06.329Z,18.76
2022-09-11T17:11:37.376Z,18.71
2022-09-11T17:14:08.295Z,18.64
2022-09-11T17:16:38.695Z,18.55
2022-09-11T17:19:10.526Z,18.39
2022-09-11T17:21:40.709Z,18.35
2022-09-11T17:24:14.179Z,18.29
2022-09-11T17:26:44.263Z,18.30
2022-09-11T17:29:14.854Z,18.29
2022-09-11T17:31:44.992Z,18.26
2022-09-11T17:34:15.095Z,18.20
2022-09-11T17:36:45.302Z,18.14
2022-09-11T17:39:17.988Z,18.03
2022-09-11T17:41:48.062Z,17.99
2022-09-11T17:44:18.267Z,18.00
2022-09-11T17:46:48.310Z,18.04
2022-09-11T17:49:18.506Z,18.00
2022-09-11T17:51:49.180Z,17.92
2022-09-11T17:54:22.222Z,17.80
2022-09-11T17:56:52.245Z,17.75
2022-09-11T17:59:22.365Z,17.68
2022-09-11T18:01:52.855Z,17.65
2022-09-11T18:04:22.992Z,17.54
2022-09-11T18:06:53.272Z,17.57
2022-09-11T18:09:26.109Z,17.66
2022-09-11T18:11:56.702Z,17.72
2022-09-11T18:14:27.777Z,17.63
2022-09-11T18:16:57.904Z,17.68
2022-09-11T18:19:28.234Z,17.71
2022-09-11T18:21:59.849Z,17.68
2022-09-11T18:24:33.219Z,17.57
2022-09-11T18:27:05.472Z,17.48
2022-09-11T18:29:35.827Z,17.37
2022-09-11T18:32:06.752Z,17.33
2022-09-11T18:34:37.023Z,17.33
2022-09-11T18:37:07.818Z,17.31
2022-09-11T18:39:40.920Z,17.29
2022-09-11T18:42:11.223Z,17.30
2022-09-11T18:44:41.538Z,17.35
2022-09-11T18:47:11.808Z,17.22
2022-09-11T18:49:42.243Z,17.18
2022-09-11T18:52:14.741Z,17.07
2022-09-11T18:54:47.656Z,17.00
2022-09-11T18:57:17.949Z,16.99
2022-09-11T18:59:49.017Z,16.94
2022-09-11T19:02:19.252Z,16.97
2022-09-11T19:04:49.762Z,17.03
2022-09-11T19:07:20.002Z,17.01
2022-09-11T19:09:54.125Z,17.03
2022-09-11T19:12:24.552Z,16.98
2022-09-11T19:14:55.679Z,17.01
2022-09-11T19:17:26.042Z,17.01
2022-09-11T19:19:56.396Z,17.00
2022-09-11T19:22:28.177Z,17.06
2022-09-11T19:25:01.264Z,17.03
2022-09-11T19:27:32.301Z,17.01
2022-09-11T19:30:02.887Z,16.95
2022-09-11T19:32:33.299Z,16.98
2022-09-11T19:35:04.002Z,16.97
2022-09-11T19:37:34.315Z,16.97
2022-09-11T19:40:07.781Z,16.90
2022-09-11T19:42:38.178Z,16.88
2022-09-11T19:45:10.799Z,16.87
2022-09-11T19:47:41.160Z,16.89
2022-09-11T19:50:17.575Z,16.89
2022-09-11T19:52:47.927Z,16.86
2022-09-11T19:55:20.878Z,16.92
2022-09-11T19:57:51.153Z,16.90
2022-09-11T20:00:22.915Z,16.93
2022-09-11T20:02:53.175Z,16.88
2022-09-11T20:05:23.814Z,16.85
2022-09-11T20:07:54.246Z,16.89
2022-09-11T20:10:27.851Z,16.91
2022-09-11T20:13:00.383Z,16.91
2022-09-11T20:15:31.203Z,16.95
2022-09-11T20:18:01.402Z,16.98
2022-09-11T20:20:31.717Z,16.98
2022-09-11T20:23:02.135Z,17.00
2022-09-11T20:25:35.259Z,17.08
2022-09-11T20:28:06.385Z,17.00
2022-09-11T20:30:37.043Z,16.99
2022-09-11T20:33:07.488Z,17.00
2022-09-11T20:35:38.006Z,17.02
2022-09-11T20:38:08.371Z,17.09
2022-09-11T20:40:44.022Z,17.15
2022-09-11T20:43:14.292Z,17.21
2022-09-11T20:45:48.241Z,17.24
2022-09-11T20:48:18.843Z,17.22
2022-09-11T20:50:50.507Z,17.24
2022-09-11T20:53:22.150Z,17.25
2022-09-11T20:55:55.178Z,17.26
2022-09-11T20:58:25.446Z,17.28
2022-09-11T21:00:55.820Z,17.28
2022-09-11T21:03:26.104Z,17.31
2022-09-11T21:05:57.642Z,17.25
2022-09-11T21:08:28.423Z,17.28
2022-09-11T21:11:05.076Z,17.28
2022-09-11T21:13:38.999Z,17.31
2022-09-11T21:16:11.682Z,17.29
2022-09-11T21:18:43.159Z,17.27
2022-09-11T21:21:13.267Z,17.26
2022-09-11T21:23:43.466Z,17.18
2022-09-11T21:26:18.702Z,17.17
2022-09-11T21:28:48.739Z,17.13
2022-09-11T21:31:19.798Z,17.07
2022-09-11T21:33:50.033Z,17.07
2022-09-11T21:36:20.697Z,17.06
2022-09-11T21:38:50.744Z,17.01
2022-09-11T21:41:23.502Z,16.96
2022-09-11T21:43:53.608Z,16.94
2022-09-11T21:46:23.907Z,16.90
2022-09-11T21:48:54.220Z,16.85
2022-09-11T21:51:25.120Z,16.83
2022-09-11T21:54:01.990Z,16.77
2022-09-11T21:56:36.946Z,16.69
2022-09-11T21:59:07.135Z,16.63
2022-09-11T22:01:38.467Z,16.61
2022-09-11T22:04:08.644Z,16.58
2022-09-11T22:06:38.746Z,16.52
2022-09-11T22:09:08.796Z,16.46
2022-09-11T22:11:41.900Z,16.41
2022-09-11T22:14:12.018Z,16.32
2022-09-11T22:16:42.117Z,16.27
2022-09-11T22:19:12.323Z,16.26
2022-09-11T22:21:42.642Z,16.19
2022-09-11T22:24:12.753Z,16.13
2022-09-11T22:26:45.321Z,16.05
2022-09-11T22:29:15.846Z,16.05
2022-09-11T22:31:45.952Z,15.98
2022-09-11T22:34:16.232Z,15.96
2022-09-11T22:36:49.368Z,15.97
2022-09-11T22:39:19.504Z,15.96
2022-09-11T22:41:52.377Z,15.93
2022-09-11T22:44:22.615Z,15.92
2022-09-11T22:46:52.706Z,15.93
2022-09-11T22:49:22.780Z,15.95
2022-09-11T22:51:52.880Z,15.98
2022-09-11T22:54:22.877Z,15.96
2022-09-11T22:56:55.525Z,15.89
2022-09-11T22:59:25.704Z,15.81
2022-09-11T23:01:55.857Z,15.78
2022-09-11T23:04:26.072Z,15.75
2022-09-11T23:07:08.573Z,15.72
2022-09-11T23:09:40.344Z,15.66
2022-09-11T23:12:13.646Z,15.64
2022-09-11T23:14:43.718Z,15.60
2022-09-11T23:17:13.820Z,15.59
2022-09-11T23:19:43.883Z,15.56
2022-09-11T23:22:14.066Z,15.55
2022-09-11T23:24:44.170Z,15.52
2022-09-11T23:27:16.844Z,15.49
2022-09-11T23:29:46.929Z,15.48
2022-09-11T23:32:16.989Z,15.46
2022-09-11T23:34:47.010Z,15.46
2022-09-11T23:37:16.989Z,15.44
2022-09-11T23:39:47.458Z,15.41
2022-09-11T23:42:20.229Z,15.40
2022-09-11T23:44:50.303Z,15.41
2022-09-11T23:47:20.406Z,15.41
2022-09-11T23:49:51.029Z,15.42
2022-09-11T23:52:21.177Z,15.42
2022-09-11T23:54:51.367Z,15.43
2022-09-11T23:57:24.082Z,15.42
2022-09-11T23:59:54.174Z,15.40
